Portada
METAR-TAF:

METAR-TAF

Aeroports :

Samarcanda, Uzbekistan

latitud: 39-34N, longitud: 066-57E, altitud: 724 m

Observació

L'informe es va fer fa 41 minuts, a les 21:30 UTC
Vent 6 kt del Est/Sud-Est
Temperatura 20°C
Humitat 68%
Pressió 1013 hPa
Visibilitat: 6000 m

METAR: UTSS 242130Z 11006KT 6000 NSC 20/14 Q1013 R09/70D NOSIG

Hora: 03:11 (22:11 UTC)

Pronòstic

L'informe es va fer fa 5 hores i 14 minuts, a les 16:57 UTC
Pronòstic vàlid del 24 a les 18 UTC al 25 a les 18 UTC
Vent 10 kt del Sud-Est
Visibilitat 10 km o més
Temporalment
l' 24 a les 18 UTC al 25 a les 03 UTC
Vent 16 kt del Est/Sud-Est

TAF: UTSS 241657Z 2418/2518 14010KT 9999 NSC TEMPO 2418/2503 11016KT

Observacions i pronòstics meteorològics de més de 4000 aeroports (METAR i TAF).

Les estacions disponibles són els punts grocs i vermells al mapa.

Posi el ratolí al punt desitjat per veure el nom de l'estació.

Feu clic per veure les observacions i els pronòstics meteorològics.

Per canviar el mapa: feu clic els botons verds amb una creu de color negre per apropar; al botó verd amb un guió per allunyar la imatge; o en les fletxes verdes per a mapes adjacents.


METAR-TAF: